Nieuwenhoorn, Netherlands
Current Conditions -  °F | °C
As of 5:55 PM on Friday 28 Nov 2014 (Local Time) from EHRD Reporting Station
Clear Clear  
Wind Chill: 38°   Ceiling: Unl
Heat Index: 45°   Visibility: 4mi
Dew Point: 41°   Wind: 13mph
Humidity: 87%   Direction: 90°E
Pressure: 29.8"   Gusts: NA
Location:  51.85°N, 4.14°E
Report Text: EHRD 281655Z AUTO 09011KT 060V120 7000 NSC 07/05 Q1009 NOSIG
Loading
Personal Weather Stations






























Interactive Weather Map New forecast layout! Learn more

10-Day Weather Forecast

Advertisements
Track Severe Weather on mobile